Time;durP1;ratioP1;P1;durP2;ratioP2;P2;SDS_P1;SDS_P2;PMS_P1;PMS_P2;Temp;Humidity;BMP_temperature;BMP_pressure;BME280_temperature;BME280_humidity;BME280_pressure;Samples;Min_cycle;Max_cycle;Signal;HPM_P1;HPM_P2
2022/06/02 00:00:48;;;;;;;8.38;4.32;;;;;;;11.19;84.04;99241.53;8202350;28;20063;-73
2022/06/02 00:05:00;;;;;;;5.50;4.32;;;;;;;11.18;83.94;99250.75;8200836;28;20051;-73
2022/06/02 00:09:10;;;;;;;9.13;4.78;;;;;;;11.22;84.15;99235.50;8196946;28;20098;-73
2022/06/02 00:13:17;;;;;;;5.40;3.97;;;;;;;11.27;83.96;99248.09;8199798;28;20073;-72
2022/06/02 00:17:33;;;;;;;4.47;3.80;;;;;;;11.30;83.49;99248.28;8201109;28;20522;-72
2022/06/02 00:21:39;;;;;;;5.47;4.18;;;;;;;11.25;84.03;99256.53;8197861;28;20123;-72
2022/06/02 00:25:50;;;;;;;6.18;3.60;;;;;;;11.26;83.99;99266.22;8199637;28;20055;-72
2022/06/02 00:30:07;;;;;;;12.23;4.13;;;;;;;11.23;84.02;99269.53;8201773;28;20054;-72
2022/06/02 00:34:14;;;;;;;4.47;3.63;;;;;;;11.23;84.21;99277.66;8201389;28;20492;-72
2022/06/02 00:38:30;;;;;;;6.05;4.00;;;;;;;11.15;84.55;99267.59;8202987;28;20063;-73
2022/06/02 00:42:52;;;;;;;7.15;3.80;;;;;;;11.12;84.20;99273.59;8198359;28;20051;-74
2022/06/02 00:46:58;;;;;;;5.72;3.90;;;;;;;11.05;84.66;99273.22;8197464;28;20066;-73
2022/06/02 00:51:08;;;;;;;8.57;4.28;;;;;;;10.98;85.18;99272.88;8212708;28;20070;-74
2022/06/02 00:59:40;;;;;;;7.30;3.75;;;;;;;10.89;84.83;99266.63;8197092;28;19922;-73
2022/06/02 01:03:43;;;;;;;6.50;3.97;;;;;;;10.84;85.00;99272.16;8199796;28;20055;-72
2022/06/02 01:08:01;;;;;;;5.25;3.28;;;;;;;10.85;85.32;99279.13;8198231;28;20385;-72
2022/06/02 01:12:10;;;;;;;4.05;3.00;;;;;;;10.92;85.34;99279.50;8211788;28;20055;-72
2022/06/02 01:16:21;;;;;;;5.35;3.17;;;;;;;11.00;84.90;99281.47;8199275;28;20043;-73
2022/06/02 01:20:43;;;;;;;3.60;3.30;;;;;;;11.09;85.16;99279.63;8199900;28;20560;-73
2022/06/02 01:25:15;;;;;;;5.50;3.20;;;;;;;11.20;85.15;99281.00;8204309;28;20407;-73
2022/06/02 01:29:38;;;;;;;5.25;2.88;;;;;;;11.30;85.02;99286.13;8200946;28;20043;-72
2022/06/02 01:33:42;;;;;;;8.48;3.22;;;;;;;11.35;85.07;99286.00;8199515;28;20053;-72
2022/06/02 01:38:08;;;;;;;4.50;2.80;;;;;;;11.41;85.31;99292.88;8211895;28;20062;-72
2022/06/02 01:42:22;;;;;;;4.72;3.10;;;;;;;11.50;85.06;99292.13;8202429;28;20043;-73
2022/06/02 01:46:50;;;;;;;6.38;4.57;;;;;;;11.54;85.24;99285.78;8218219;28;20054;-73
2022/06/02 01:51:03;;;;;;;9.05;5.53;;;;;;;11.62;85.38;99298.56;8201854;28;20511;-73
2022/06/02 01:55:31;;;;;;;7.75;5.35;;;;;;;11.69;85.42;99298.09;8203538;28;20110;-73
2022/06/02 02:00:08;;;;;;;7.85;5.68;;;;;;;11.65;85.61;99291.72;8201813;28;20047;-72
2022/06/02 02:04:10;;;;;;;8.32;5.63;;;;;;;11.57;85.71;99297.91;8198453;28;20127;-71
2022/06/02 02:08:13;;;;;;;9.48;6.32;;;;;;;11.50;86.22;99292.13;8208314;28;20042;-72
2022/06/02 02:12:45;;;;;;;13.90;6.70;;;;;;;11.44;86.79;99297.66;8206453;28;20059;-72
2022/06/02 02:16:49;;;;;;;8.95;7.00;;;;;;;11.39;86.95;99289.69;8198670;28;20094;-72
2022/06/02 02:21:31;;;;;;;9.18;7.30;;;;;;;11.40;86.91;99290.50;8202755;28;20488;-73
2022/06/02 02:25:41;;;;;;;9.60;7.13;;;;;;;11.47;86.88;99290.06;8204011;28;20059;-73
2022/06/02 02:29:51;;;;;;;14.90;7.28;;;;;;;11.50;86.74;99279.41;8207887;28;20051;-73
2022/06/02 02:34:07;;;;;;;13.60;7.90;;;;;;;11.52;87.04;99281.81;8209571;28;20053;-73
2022/06/02 02:38:20;;;;;;;10.95;7.45;;;;;;;11.56;87.10;99285.47;8202468;28;20507;-72
2022/06/02 02:42:31;;;;;;;10.73;7.63;;;;;;;11.60;86.84;99294.56;8207687;28;20062;-73
2022/06/02 02:46:48;;;;;;;11.88;7.20;;;;;;;11.65;87.05;99313.38;8202206;28;20098;-71
2022/06/02 02:50:55;;;;;;;10.00;7.25;;;;;;;11.68;88.52;99334.41;8198993;28;20587;-73
2022/06/02 02:54:59;;;;;;;10.50;7.03;;;;;;;11.59;88.88;99301.06;8201398;28;20062;-73
2022/06/02 02:59:06;;;;;;;13.52;7.60;;;;;;;11.53;89.87;99315.84;8201514;28;20459;-71
2022/06/02 03:03:18;;;;;;;9.25;7.10;;;;;;;11.58;89.73;99340.09;8200939;28;20102;-72
2022/06/02 03:07:20;;;;;;;12.60;7.75;;;;;;;11.62;89.42;99351.88;8200961;28;20058;-72
2022/06/02 03:11:39;;;;;;;8.63;6.82;;;;;;;11.55;89.96;99373.13;8201350;28;20168;-73
2022/06/02 03:15:59;;;;;;;;;;;;;;;11.60;90.55;99375.72;8198469;28;20043;-73
2022/06/02 03:20:24;;;;;;;22.23;8.73;;;;;;;11.59;90.68;99384.94;8199179;28;20298;-74
2022/06/02 03:24:54;;;;;;;15.48;9.18;;;;;;;11.60;91.25;99403.56;8204960;28;20334;-73
2022/06/02 03:29:02;;;;;;;;;;;;;;;11.58;92.18;99415.81;8190943;29;20507;-73
2022/06/02 03:33:12;;;;;;;15.20;9.98;;;;;;;11.53;92.85;99413.22;8174627;28;19945;-73
2022/06/02 03:37:48;;;;;;;18.27;10.98;;;;;;;11.55;92.71;99438.06;8194305;28;20043;-73
2022/06/02 03:41:55;;;;;;;13.48;10.40;;;;;;;11.54;93.03;99441.84;8194032;28;20043;-73
2022/06/02 03:46:51;;;;;;;19.10;10.88;;;;;;;11.48;94.38;99475.53;8149841;29;20051;-72
2022/06/02 03:51:01;;;;;;;15.38;9.45;;;;;;;11.50;94.61;99500.38;7920299;29;20115;-73
2022/06/02 03:55:08;;;;;;;15.63;10.05;;;;;;;11.48;95.21;99497.97;7920633;30;20095;-73
2022/06/02 03:59:23;;;;;;;11.23;7.97;;;;;;;11.51;95.46;99496.56;7919425;29;20051;-74
2022/06/02 04:03:50;;;;;;;12.30;8.52;;;;;;;11.52;95.00;99509.00;7924550;29;20485;-73
2022/06/02 04:08:26;;;;;;;13.77;8.77;;;;;;;11.53;94.56;99510.56;7948873;29;20046;-73
2022/06/02 04:17:19;;;;;;;24.50;14.63;;;;;;;11.52;94.38;99492.78;7949485;29;20051;-72
2022/06/02 04:21:50;;;;;;;22.25;11.70;;;;;;;11.52;94.71;99519.81;7949074;29;20065;-74
2022/06/02 04:26:16;;;;;;;19.20;10.00;;;;;;;11.62;93.96;99519.59;8031203;28;20065;-75
2022/06/02 04:30:28;;;;;;;8.32;6.10;;;;;;;11.71;93.41;99517.75;8198069;29;20051;-73
2022/06/02 04:34:43;;;;;;;11.13;6.78;;;;;;;11.65;93.08;99535.19;8197940;29;20051;-72
2022/06/02 04:38:56;;;;;;;9.60;6.82;;;;;;;11.65;93.11;99529.78;8199158;28;20134;-74
2022/06/02 04:43:07;;;;;;;9.77;5.50;;;;;;;11.68;92.61;99530.00;8198739;28;20106;-73
2022/06/02 04:47:22;;;;;;;8.90;5.03;;;;;;;11.65;92.20;99535.19;8213693;28;20122;-74
2022/06/02 04:51:55;;;;;;;7.20;5.40;;;;;;;11.59;92.19;99541.81;8198963;28;20050;-73
2022/06/02 04:55:56;;;;;;;10.32;5.30;;;;;;;11.59;91.86;99525.59;8116144;29;20501;-73
2022/06/02 05:00:27;;;;;;;6.38;4.78;;;;;;;11.64;92.05;99528.19;8100235;29;20052;-72
2022/06/02 05:04:55;;;;;;;9.52;5.75;;;;;;;11.80;91.38;99526.75;8100065;29;20135;-73
2022/06/02 05:09:27;;;;;;;9.10;6.10;;;;;;;12.05;90.89;99534.28;8100155;29;20052;-72
2022/06/02 05:13:49;;;;;;;10.75;7.22;;;;;;;12.24;90.28;99551.13;8095058;29;20049;-73
2022/06/02 05:17:57;;;;;;;12.18;6.25;;;;;;;12.34;89.82;99552.00;8089482;29;20089;-73
2022/06/02 05:22:19;;;;;;;9.57;4.67;;;;;;;12.43;88.99;99550.13;8101463;29;20301;-72
2022/06/02 05:26:35;;;;;;;7.65;4.57;;;;;;;12.42;88.91;99554.78;8106371;29;20062;-72
2022/06/02 05:31:13;;;;;;;7.97;4.50;;;;;;;12.47;88.57;99562.75;8118776;29;20047;-72
2022/06/02 05:35:43;;;;;;;10.68;5.35;;;;;;;12.55;88.36;99567.41;8186231;29;20051;-72
2022/06/02 05:39:59;;;;;;;8.75;5.30;;;;;;;12.64;88.01;99556.63;8186014;29;20050;-72
2022/06/02 05:44:33;;;;;;;8.50;5.25;;;;;;;12.69;88.79;99575.44;8204477;28;20499;-73
2022/06/02 05:49:04;;;;;;;3.88;2.90;;;;;;;12.47;86.14;99583.63;8204084;28;20051;-73
2022/06/02 05:53:14;;;;;;;8.55;2.97;;;;;;;12.12;87.90;99586.09;8190755;29;20051;-73
2022/06/02 05:57:37;;;;;;;6.28;2.88;;;;;;;12.01;87.78;99592.84;8216594;28;20102;-73
2022/06/02 06:01:42;;;;;;;3.63;2.45;;;;;;;11.86;87.83;99587.78;8169574;29;20570;-73
2022/06/02 06:06:39;;;;;;;4.68;2.38;;;;;;;11.90;88.40;99586.06;8203677;28;20499;-71
2022/06/02 06:11:12;;;;;;;4.93;2.85;;;;;;;12.03;86.97;99585.22;8136062;29;20109;-73
2022/06/02 06:15:36;;;;;;;3.20;2.45;;;;;;;12.11;87.25;99579.06;8136213;29;20099;-72
2022/06/02 06:20:02;;;;;;;5.25;2.67;;;;;;;12.07;87.73;99594.31;8109905;29;20412;-72
2022/06/02 06:24:24;;;;;;;6.78;3.13;;;;;;;11.86;88.28;99601.31;8135928;29;20075;-74
2022/06/02 06:28:30;;;;;;;5.28;3.95;;;;;;;11.59;88.83;99595.91;8136040;29;20052;-72
2022/06/02 06:33:03;;;;;;;8.07;4.63;;;;;;;11.72;89.19;99600.53;8135513;29;20056;-74
2022/06/02 06:37:28;;;;;;;7.72;4.63;;;;;;;11.82;90.06;99605.75;8135495;29;20524;-73
2022/06/02 06:41:50;;;;;;;5.75;4.50;;;;;;;12.01;89.74;99609.09;8135001;29;20052;-72
2022/06/02 06:46:10;;;;;;;6.90;4.75;;;;;;;12.10;87.50;99612.69;8130584;29;20067;-73
2022/06/02 06:50:21;;;;;;;8.20;4.68;;;;;;;12.20;88.69;99617.06;8122009;29;20048;-72
2022/06/02 06:55:00;;;;;;;7.05;5.18;;;;;;;12.34;88.50;99617.00;8134910;29;20557;-72
2022/06/02 06:59:27;;;;;;;6.97;5.40;;;;;;;12.57;88.08;99624.00;8134564;29;20044;-72
2022/06/02 07:03:56;;;;;;;7.30;4.68;;;;;;;12.68;87.67;99619.94;8056791;29;20044;-72
2022/06/02 07:08:11;;;;;;;8.00;5.47;;;;;;;12.71;85.80;99622.03;8092637;29;20052;-73
2022/06/02 07:16:55;;;;;;;6.15;5.18;;;;;;;12.91;85.10;99610.66;8082633;29;20136;-72
2022/06/02 07:21:14;;;;;;;12.05;5.30;;;;;;;13.12;84.86;99616.34;8071891;29;20497;-73
2022/06/02 07:25:20;;;;;;;8.77;5.43;;;;;;;13.32;83.97;99615.00;8072192;29;20136;-72
2022/06/02 07:29:51;;;;;;;7.97;5.30;;;;;;;13.50;83.11;99627.50;8074282;29;20084;-72
2022/06/02 07:34:22;;;;;;;8.23;5.20;;;;;;;13.70;81.46;99621.47;8097294;29;20410;-72
2022/06/02 07:38:44;;;;;;;10.20;5.03;;;;;;;13.74;77.54;99627.91;8122670;29;20495;-72
2022/06/02 07:43:19;;;;;;;7.82;5.40;;;;;;;13.76;77.05;99631.06;8200395;28;20133;-72
2022/06/02 07:47:53;;;;;;;6.53;5.47;;;;;;;13.84;76.81;99638.44;8200575;28;20051;-72
2022/06/02 07:52:32;;;;;;;9.45;5.95;;;;;;;14.17;76.35;99641.50;8202322;28;20547;-72
2022/06/02 07:56:45;;;;;;;7.65;5.30;;;;;;;14.54;74.60;99645.50;8132852;29;20044;-73
2022/06/02 08:00:53;;;;;;;9.10;5.00;;;;;;;14.62;74.31;99647.44;8133009;29;20572;-73
2022/06/02 08:04:58;;;;;;;6.78;4.68;;;;;;;14.66;69.88;99653.81;8117068;29;20482;-72
2022/06/02 08:09:33;;;;;;;4.47;4.07;;;;;;;15.01;70.42;99664.63;8132956;29;20048;-73
2022/06/02 08:13:48;;;;;;;7.75;4.38;;;;;;;15.16;69.28;99666.81;8132728;29;20052;-73
2022/06/02 08:18:01;;;;;;;6.43;4.03;;;;;;;15.28;69.99;99674.31;8132387;29;20052;-73
2022/06/02 08:22:04;;;;;;;7.65;4.40;;;;;;;15.30;69.04;99675.56;8132554;29;20114;-73
2022/06/02 08:26:13;;;;;;;4.63;4.20;;;;;;;15.49;68.55;99681.41;8132457;29;20548;-73
2022/06/02 08:30:16;;;;;;;;;;;;;;;15.42;67.70;99675.69;8085575;29;20056;-73
2022/06/02 08:34:46;;;;;;;7.20;3.95;;;;;;;15.58;67.11;99679.50;8191787;28;19927;-73
2022/06/02 08:39:11;;;;;;;3.40;2.90;;;;;;;15.83;63.89;99690.56;8199432;28;20047;-73
2022/06/02 08:43:47;;;;;;;3.90;3.20;;;;;;;15.81;64.02;99684.66;8198691;28;20424;-72
2022/06/02 08:48:10;;;;;;;8.65;3.33;;;;;;;15.94;65.38;99691.78;8131732;29;20087;-73
2022/06/02 08:52:52;;;;;;;7.40;2.90;;;;;;;16.38;62.55;99690.38;8130581;29;20055;-73
2022/06/02 08:57:30;;;;;;;3.78;2.58;;;;;;;16.53;61.02;99697.13;8115514;29;20041;-72
2022/06/02 09:02:04;;;;;;;7.72;2.97;;;;;;;16.27;61.59;99706.31;8131465;29;20072;-72
2022/06/02 09:06:46;;;;;;;3.88;2.72;;;;;;;16.42;61.69;99708.44;8131715;29;20059;-73
2022/06/02 09:11:15;;;;;;;3.30;2.75;;;;;;;16.75;61.03;99694.09;8100072;29;20127;-72
2022/06/02 09:15:35;;;;;;;3.73;2.47;;;;;;;16.78;58.95;99709.78;8100189;29;20051;-72
2022/06/02 09:19:38;;;;;;;3.88;2.60;;;;;;;16.66;56.72;99717.91;8099993;29;20053;-74
2022/06/02 09:23:51;;;;;;;9.23;2.50;;;;;;;16.52;58.77;99717.34;8055958;29;20057;-72
2022/06/02 09:28:19;;;;;;;4.32;3.10;;;;;;;16.72;59.84;99722.00;8100111;29;20041;-73
2022/06/02 09:32:50;;;;;;;6.05;2.20;;;;;;;17.15;58.14;99730.59;8099876;29;20084;-72
2022/06/02 09:37:21;;;;;;;3.85;2.35;;;;;;;17.33;55.51;99716.78;8099655;29;20135;-73
2022/06/02 09:41:30;;;;;;;3.15;2.30;;;;;;;17.52;53.21;99727.94;8099478;29;20071;-72
2022/06/02 09:46:08;;;;;;;9.73;2.15;;;;;;;17.28;54.55;99713.13;8091596;29;20057;-74
2022/06/02 09:50:30;;;;;;;5.47;2.78;;;;;;;17.09;56.50;99726.47;8184433;28;20047;-72
2022/06/02 09:54:57;;;;;;;5.63;2.95;;;;;;;17.24;55.41;99728.56;8184561;28;20388;-73
2022/06/02 09:59:20;;;;;;;5.05;2.10;;;;;;;17.37;54.79;99744.97;8196287;29;20488;-72
2022/06/02 10:03:52;;;;;;;2.13;1.83;;;;;;;17.38;54.70;99744.66;8200410;28;20047;-71
2022/06/02 10:07:54;;;;;;;3.85;1.88;;;;;;;17.84;54.01;99740.75;8203572;28;20043;-73
2022/06/02 10:16:54;;;;;;;3.50;2.00;;;;;;;18.42;50.93;99744.09;8202371;28;20047;-72
2022/06/02 10:21:34;;;;;;;2.63;1.70;;;;;;;18.15;50.94;99746.41;8203185;28;20516;-73
2022/06/02 10:25:56;;;;;;;4.53;1.88;;;;;;;18.65;50.28;99747.97;8203155;28;20063;-73
2022/06/02 10:30:18;;;;;;;3.80;2.03;;;;;;;18.25;49.53;99749.81;8191241;29;20047;-72
2022/06/02 10:34:28;;;;;;;1.85;1.50;;;;;;;18.24;50.01;99748.25;8203082;28;20335;-73
2022/06/02 10:38:40;;;;;;;2.17;1.70;;;;;;;18.28;49.99;99740.94;8202938;28;20054;-73
2022/06/02 10:43:28;;;;;;;3.25;1.88;;;;;;;18.11;48.22;99751.00;8202488;28;20571;-73
2022/06/02 10:47:53;;;;;;;2.30;1.40;;;;;;;18.44;48.27;99741.84;8103991;29;20057;-73
2022/06/02 10:52:16;;;;;;;1.45;1.35;;;;;;;18.66;47.72;99722.19;8088447;29;20055;-74
2022/06/02 10:56:37;;;;;;;2.10;1.40;;;;;;;18.53;47.42;99728.81;8103865;29;20052;-74
2022/06/02 11:00:43;;;;;;;2.30;1.50;;;;;;;18.60;48.89;99734.53;8088223;29;20048;-73
2022/06/02 11:05:15;;;;;;;6.05;2.05;;;;;;;19.12;48.83;99734.44;8103911;29;20049;-74
2022/06/02 11:09:30;;;;;;;4.25;1.60;;;;;;;19.17;47.42;99738.84;8103376;29;20472;-75
2022/06/02 11:14:07;;;;;;;1.85;1.30;;;;;;;19.56;48.70;99737.97;8102758;29;20061;-72
2022/06/02 11:18:38;;;;;;;1.98;1.25;;;;;;;19.88;47.77;99733.25;8092296;29;20104;-73
2022/06/02 11:23:10;;;;;;;2.65;1.27;;;;;;;19.93;45.06;99734.94;8140844;29;20491;-73
2022/06/02 11:27:48;;;;;;;2.75;1.27;;;;;;;19.79;46.69;99719.75;8201691;28;20071;-73
2022/06/02 11:32:11;;;;;;;2.65;1.20;;;;;;;19.81;45.54;99711.97;8201424;28;20575;-73
2022/06/02 11:37:00;;;;;;;2.03;1.17;;;;;;;19.94;45.59;99725.53;8200786;28;20043;-73
2022/06/02 11:41:22;;;;;;;2.33;1.05;;;;;;;19.60;44.38;99721.63;8133418;29;20134;-73
2022/06/02 11:45:44;;;;;;;3.63;1.20;;;;;;;19.85;44.49;99733.16;8133629;29;20047;-73
2022/06/02 11:50:13;;;;;;;4.68;1.00;;;;;;;19.17;44.36;99725.16;8133279;29;20465;-73
2022/06/02 11:54:47;;;;;;;3.25;1.27;;;;;;;19.26;46.48;99723.03;8133183;29;20044;-73
2022/06/02 11:59:02;;;;;;;1.38;0.80;;;;;;;19.75;44.27;99721.59;8133134;29;20161;-74
2022/06/02 12:03:31;;;;;;;2.92;0.70;;;;;;;19.78;40.57;99729.09;8133254;29;20052;-73
2022/06/02 12:08:23;;;;;;;6.38;0.70;;;;;;;20.08;40.75;99726.69;8132764;29;20064;-73
2022/06/02 12:12:43;;;;;;;1.00;0.80;;;;;;;20.23;40.76;99738.78;8132538;29;20098;-73
2022/06/02 12:17:15;;;;;;;1.10;0.85;;;;;;;19.87;41.79;99726.19;8142232;29;20051;-72
2022/06/02 12:21:31;;;;;;;2.25;0.90;;;;;;;20.10;41.81;99735.34;8148421;29;20044;-73
2022/06/02 12:25:59;;;;;;;4.70;0.88;;;;;;;20.54;42.04;99738.72;8148127;29;20067;-73
2022/06/02 12:30:03;;;;;;;1.67;0.90;;;;;;;20.65;40.45;99750.72;8163856;29;20040;-73
2022/06/02 12:34:23;;;;;;;1.67;1.00;;;;;;;20.70;40.06;99735.09;8131894;29;20130;-74
2022/06/02 12:38:40;;;;;;;1.20;0.80;;;;;;;21.00;39.39;99747.09;8151341;29;20405;-74
2022/06/02 12:43:03;;;;;;;2.05;0.80;;;;;;;21.18;38.83;99745.53;8152621;29;20051;-73
2022/06/02 12:47:11;;;;;;;3.45;0.90;;;;;;;21.05;38.40;99741.31;8171690;29;20043;-73
2022/06/02 12:51:29;;;;;;;0.85;0.77;;;;;;;21.34;39.63;99754.47;8180887;29;20044;-73
2022/06/02 12:55:42;;;;;;;0.95;0.80;;;;;;;21.32;38.66;99751.28;8195976;29;20134;-72
2022/06/02 12:59:46;;;;;;;1.73;0.90;;;;;;;21.05;39.47;99746.78;8198806;28;20557;-74
2022/06/02 13:04:05;;;;;;;0.98;0.70;;;;;;;21.40;39.11;99742.00;8198732;28;20043;-73
2022/06/02 13:08:37;;;;;;;1.88;0.85;;;;;;;21.17;39.94;99749.41;8198986;28;20063;-74
2022/06/02 13:12:58;;;;;;;5.15;0.80;;;;;;;21.84;40.00;99755.31;8198349;28;20043;-73
2022/06/02 13:17:26;;;;;;;0.90;0.73;;;;;;;22.13;38.57;99751.88;8197542;29;20051;-73
2022/06/02 13:21:50;;;;;;;0.90;0.70;;;;;;;21.71;37.78;99740.19;8186808;29;20051;-73
2022/06/02 13:26:15;;;;;;;2.05;0.80;;;;;;;21.72;37.94;99755.53;8197984;28;20067;-73
2022/06/02 13:30:43;;;;;;;0.80;0.80;;;;;;;21.74;37.48;99761.44;8198268;28;20093;-73
2022/06/02 13:35:02;;;;;;;1.45;0.82;;;;;;;23.14;34.79;99766.63;8198258;28;20066;-74
2022/06/02 13:39:10;;;;;;;1.15;0.88;;;;;;;23.86;33.61;99764.19;8203193;28;20080;-73
2022/06/02 13:43:41;;;;;;;1.40;0.70;;;;;;;25.38;31.31;99753.19;8234407;28;20058;-73
2022/06/02 13:48:04;;;;;;;0.90;0.70;;;;;;;24.52;32.80;99756.81;8137224;29;20052;-74
2022/06/02 13:52:40;;;;;;;2.28;0.70;;;;;;;24.59;34.20;99761.56;8137090;29;20045;-73
2022/06/02 14:01:25;;;;;;;2.70;0.70;;;;;;;26.49;31.76;99766.66;8125282;29;20523;-73
2022/06/02 14:05:51;;;;;;;0.50;0.50;;;;;;;27.82;29.39;99768.38;8136635;29;20610;-73
2022/06/02 14:09:51;;;;;;;3.00;0.70;;;;;;;29.95;28.04;99754.72;8136969;29;20052;-74
2022/06/02 14:14:23;;;;;;;2.05;0.85;;;;;;;30.07;24.84;99774.41;8136173;29;20059;-74
2022/06/02 14:18:44;;;;;;;0.82;0.70;;;;;;;29.31;25.68;99762.06;8136246;29;20176;-73
2022/06/02 14:22:55;;;;;;;0.80;0.60;;;;;;;29.24;26.65;99766.91;8159926;29;20069;-73
2022/06/02 14:27:02;;;;;;;1.33;0.75;;;;;;;31.10;25.34;99766.88;8203451;28;20047;-74
2022/06/02 14:31:09;;;;;;;1.85;0.70;;;;;;;31.82;25.88;99766.84;8202764;28;20077;-74
2022/06/02 14:35:13;;;;;;;0.75;0.70;;;;;;;32.98;24.34;99762.16;8203139;28;20389;-74
2022/06/02 14:39:26;;;;;;;2.97;0.75;;;;;;;32.78;23.36;99769.94;8203073;28;20059;-74
2022/06/02 14:43:57;;;;;;;1.08;0.90;;;;;;;33.43;22.85;99753.59;8202897;28;20078;-74
2022/06/02 14:48:04;;;;;;;0.98;0.73;;;;;;;32.96;20.91;99765.38;8202597;28;20055;-74
2022/06/02 14:52:32;;;;;;;1.20;0.70;;;;;;;30.93;24.13;99762.44;8200018;28;20058;-74
2022/06/02 14:56:43;;;;;;;1.30;0.77;;;;;;;30.52;23.91;99760.88;8217098;28;20468;-74
2022/06/02 15:00:53;;;;;;;5.60;0.70;;;;;;;31.41;23.31;99770.94;8220855;28;20062;-74
2022/06/02 15:05:03;;;;;;;1.92;0.85;;;;;;;31.75;23.29;99772.59;8226553;28;20085;-72
2022/06/02 15:09:10;;;;;;;2.15;0.77;;;;;;;31.70;23.52;99770.31;8202669;28;20055;-72
2022/06/02 15:13:42;;;;;;;0.98;0.90;;;;;;;30.92;23.84;99755.31;8206179;28;20054;-73
2022/06/02 15:18:18;;;;;;;1.95;0.70;;;;;;;28.92;26.31;99745.84;8153283;29;20047;-73
2022/06/02 15:22:44;;;;;;;1.15;1.00;;;;;;;29.57;24.66;99746.56;8165968;29;20055;-74
2022/06/02 15:27:22;;;;;;;3.17;0.90;;;;;;;30.02;24.50;99754.63;8179099;28;20055;-73
2022/06/02 15:31:41;;;;;;;1.40;0.80;;;;;;;28.94;25.92;99740.69;8182792;28;20051;-73
2022/06/02 15:36:09;;;;;;;1.50;0.80;;;;;;;28.10;26.62;99751.50;8170932;28;20099;-73
2022/06/02 15:40:31;;;;;;;1.60;0.70;;;;;;;27.43;28.26;99742.91;8169407;29;20052;-72
2022/06/02 15:44:49;;;;;;;1.05;0.90;;;;;;;26.89;28.73;99756.25;8166554;28;20531;-73
2022/06/02 15:49:14;;;;;;;0.93;0.80;;;;;;;26.53;29.25;99754.78;8199812;28;20397;-74
2022/06/02 15:53:24;;;;;;;1.25;0.70;;;;;;;26.07;29.52;99750.06;8204232;28;20051;-73
2022/06/02 15:57:44;;;;;;;0.73;0.70;;;;;;;25.35;29.72;99753.97;8210087;28;20142;-73
2022/06/02 16:02:09;;;;;;;2.47;0.70;;;;;;;24.73;30.82;99756.91;8197732;28;20219;-75
2022/06/02 16:06:37;;;;;;;0.90;0.68;;;;;;;24.64;30.65;99764.75;8206530;28;20492;-75
2022/06/02 16:11:15;;;;;;;1.60;0.80;;;;;;;24.23;31.56;99763.31;8213912;28;20059;-75
2022/06/02 16:15:25;;;;;;;3.23;0.93;;;;;;;24.05;33.10;99759.63;8197507;28;20051;-73
2022/06/02 16:19:50;;;;;;;3.65;0.68;;;;;;;23.80;32.65;99760.19;8201040;28;20055;-74
2022/06/02 16:24:15;;;;;;;1.58;0.75;;;;;;;23.69;32.71;99759.31;8199541;28;20059;-75
2022/06/02 16:28:25;;;;;;;1.27;0.80;;;;;;;23.34;33.64;99764.47;8195333;28;20447;-75
2022/06/02 16:33:00;;;;;;;1.30;0.80;;;;;;;23.89;32.62;99757.94;8207082;28;20054;-73
2022/06/02 16:37:26;;;;;;;4.35;0.73;;;;;;;25.22;30.27;99766.59;8189906;28;20097;-74
2022/06/02 16:41:54;;;;;;;4.10;0.70;;;;;;;26.59;28.12;99776.13;8205968;28;20319;-74
2022/06/02 16:45:58;;;;;;;0.73;0.70;;;;;;;28.29;26.07;99768.81;8189322;28;20043;-74
2022/06/02 16:50:05;;;;;;;1.17;0.80;;;;;;;29.03;25.59;99767.19;8195436;28;20078;-74
2022/06/02 16:54:11;;;;;;;6.65;0.75;;;;;;;28.74;25.14;99778.66;8178582;29;20043;-74
2022/06/02 16:58:12;;;;;;;0.70;0.60;;;;;;;26.19;28.02;99774.59;8195180;28;20051;-75
2022/06/02 17:02:33;;;;;;;1.45;0.60;;;;;;;24.00;30.28;99775.34;8204645;28;20047;-74
2022/06/02 17:07:03;;;;;;;1.45;0.75;;;;;;;22.66;33.10;99773.88;8191026;28;20051;-73
2022/06/02 17:11:17;;;;;;;1.50;0.80;;;;;;;22.06;34.69;99773.78;8200268;28;20696;-73
2022/06/02 17:16:01;;;;;;;1.73;0.88;;;;;;;21.56;35.72;99776.81;8199506;28;20059;-72
2022/06/02 17:20:07;;;;;;;1.15;0.70;;;;;;;21.15;36.27;99779.19;8224070;28;20055;-73
2022/06/02 17:24:19;;;;;;;0.70;0.70;;;;;;;20.85;37.71;99786.41;8197720;28;20467;-72
2022/06/02 17:28:38;;;;;;;1.27;0.90;;;;;;;20.58;38.71;99783.47;8234126;28;20078;-73
2022/06/02 17:32:47;;;;;;;1.30;0.73;;;;;;;20.37;39.04;99793.97;8238561;28;20062;-72
2022/06/02 17:36:48;;;;;;;2.40;0.80;;;;;;;20.19;38.48;99787.28;8226237;28;20110;-73
2022/06/02 17:41:07;;;;;;;1.42;0.82;;;;;;;20.01;38.81;99797.00;8226383;28;20061;-72
2022/06/02 17:45:08;;;;;;;1.10;0.90;;;;;;;19.82;39.91;99795.00;8226346;28;20039;-73
2022/06/02 17:49:24;;;;;;;0.85;0.80;;;;;;;19.60;40.52;99790.09;8226286;28;20470;-72
2022/06/02 17:53:40;;;;;;;2.45;0.70;;;;;;;19.36;41.47;99799.22;8226182;28;20051;-72
2022/06/02 17:58:06;;;;;;;5.28;0.90;;;;;;;19.10;41.87;99796.13;8205493;28;20375;-72
2022/06/02 18:02:33;;;;;;;1.70;0.90;;;;;;;18.83;42.52;99798.50;8203098;28;20106;-73
2022/06/02 18:06:43;;;;;;;2.90;0.85;;;;;;;18.59;43.72;99806.78;8199994;28;20055;-73
2022/06/02 18:10:56;;;;;;;1.88;0.80;;;;;;;18.41;45.02;99808.13;8195821;28;20047;-72
2022/06/02 18:15:06;;;;;;;1.38;0.80;;;;;;;18.23;45.26;99801.34;8197902;28;20550;-72
2022/06/02 18:19:18;;;;;;;0.90;0.80;;;;;;;18.07;46.47;99810.22;8198657;28;20430;-71
2022/06/02 18:23:28;;;;;;;2.50;0.98;;;;;;;17.85;46.97;99813.38;8197077;28;20138;-72
2022/06/02 18:27:51;;;;;;;1.27;0.98;;;;;;;17.61;48.77;99813.31;8232755;28;20403;-71
2022/06/02 18:32:12;;;;;;;2.15;1.10;;;;;;;17.38;49.55;99828.50;8189171;28;20050;-72
2022/06/02 18:36:28;;;;;;;4.63;1.30;;;;;;;17.15;50.07;99822.59;8195794;28;20066;-71
2022/06/02 18:40:38;;;;;;;2.33;1.83;;;;;;;16.92;51.15;99824.84;8192580;28;20415;-73
2022/06/02 18:45:21;;;;;;;3.47;1.90;;;;;;;16.66;52.03;99837.88;8182070;28;20511;-73
2022/06/02 18:49:42;;;;;;;5.43;2.00;;;;;;;16.40;52.83;99836.09;8195018;29;20051;-73
2022/06/02 18:53:55;;;;;;;3.03;1.67;;;;;;;16.19;53.73;99846.13;8197590;28;20495;-72
2022/06/02 18:58:27;;;;;;;5.25;2.13;;;;;;;15.97;54.32;99854.56;8191707;29;20142;-73
2022/06/02 19:02:45;;;;;;;5.05;2.20;;;;;;;15.76;55.15;99859.13;8194876;28;20170;-71
2022/06/02 19:16:41;;;;;;;4.60;1.88;;;;;;;15.16;57.81;99879.84;8130873;29;20091;-71
2022/06/02 19:21:03;;;;;;;4.05;2.20;;;;;;;15.02;57.89;99883.81;8120235;29;20135;-72
2022/06/02 19:25:22;;;;;;;7.28;2.25;;;;;;;14.82;58.15;99887.16;8118151;29;20045;-71
2022/06/02 19:29:32;;;;;;;4.38;2.50;;;;;;;14.65;58.52;99890.63;8105447;29;20041;-72
2022/06/02 19:34:06;;;;;;;3.58;2.20;;;;;;;14.44;59.09;99889.59;8105956;29;20064;-72
2022/06/02 19:38:20;;;;;;;6.00;2.60;;;;;;;14.26;59.80;99883.31;8103187;29;20052;-72
2022/06/02 19:42:30;;;;;;;6.47;2.45;;;;;;;14.06;60.44;99889.28;8088720;29;20086;-71
2022/06/02 19:46:55;;;;;;;6.35;3.13;;;;;;;13.93;61.07;99891.78;8099564;29;20525;-72
2022/06/02 19:51:16;;;;;;;4.45;3.13;;;;;;;13.79;61.48;99891.06;8134373;29;20047;-71
2022/06/02 19:55:34;;;;;;;6.43;3.13;;;;;;;13.64;61.98;99899.56;8176372;28;20095;-71
2022/06/02 19:59:40;;;;;;;4.07;2.83;;;;;;;13.49;62.19;99897.22;8181962;28;20065;-71
2022/06/02 20:03:41;;;;;;;7.32;3.97;;;;;;;13.35;62.59;99907.34;8184197;28;20061;-72
2022/06/02 20:07:54;;;;;;;4.60;3.35;;;;;;;13.22;62.84;99897.38;8194529;28;20102;-71
2022/06/02 20:12:20;;;;;;;5.45;2.97;;;;;;;13.05;63.05;99885.22;8184947;28;20559;-72
2022/06/02 20:16:43;;;;;;;4.15;2.70;;;;;;;12.89;63.53;99900.22;8162683;29;20052;-72
2022/06/02 20:20:52;;;;;;;5.78;2.20;;;;;;;12.76;64.14;99901.03;8164901;29;20079;-71
2022/06/02 20:25:01;;;;;;;5.13;2.60;;;;;;;12.65;64.62;99905.06;8163991;29;20044;-72
2022/06/02 20:29:11;;;;;;;2.83;2.00;;;;;;;12.55;64.27;99899.88;8161181;29;20048;-72
2022/06/02 20:33:33;;;;;;;3.42;1.92;;;;;;;12.44;64.52;99909.28;8162046;29;20740;-71
2022/06/02 20:37:50;;;;;;;4.70;2.05;;;;;;;12.34;64.65;99909.50;8164541;29;20072;-71
2022/06/02 20:41:56;;;;;;;4.10;1.80;;;;;;;12.22;65.22;99913.50;8165101;29;20082;-72
2022/06/02 20:46:10;;;;;;;3.83;1.50;;;;;;;12.15;65.24;99918.53;8164398;29;20636;-72
2022/06/02 20:50:25;;;;;;;2.85;1.70;;;;;;;12.04;65.49;99917.09;8164931;29;20047;-71
2022/06/02 20:54:31;;;;;;;4.22;2.10;;;;;;;11.92;65.67;99921.38;8197751;28;20135;-71